createdAt,value
2018-09-29T00:01:50.643Z,2.67
2018-09-29T00:04:17.502Z,3.40
2018-09-29T00:06:44.352Z,2.53
2018-09-29T00:09:12.140Z,3.30
2018-09-29T00:11:39.717Z,2.70
2018-09-29T00:14:07.686Z,2.77
2018-09-29T00:16:34.700Z,2.23
2018-09-29T00:19:01.614Z,2.93
2018-09-29T00:21:28.542Z,2.30
2018-09-29T00:23:55.369Z,3.00
2018-09-29T00:26:22.275Z,2.60
2018-09-29T00:28:49.234Z,2.80
2018-09-29T00:31:16.177Z,3.53
2018-09-29T00:33:44.050Z,2.77
2018-09-29T00:36:10.873Z,3.40
2018-09-29T00:38:37.762Z,2.40
2018-09-29T00:41:04.618Z,2.50
2018-09-29T00:43:31.467Z,3.20
2018-09-29T00:45:58.322Z,2.80
2018-09-29T00:48:25.182Z,3.07
2018-09-29T00:50:52.074Z,3.00
2018-09-29T00:53:18.978Z,3.20
2018-09-29T00:55:45.850Z,3.40
2018-09-29T00:58:12.697Z,2.77
2018-09-29T01:00:39.550Z,2.73
2018-09-29T01:03:06.458Z,2.70
2018-09-29T01:05:33.370Z,2.70
2018-09-29T01:08:00.218Z,2.60
2018-09-29T01:10:27.277Z,3.33
2018-09-29T01:12:55.181Z,2.90
2018-09-29T01:15:22.136Z,2.93
2018-09-29T01:17:49.006Z,3.40
2018-09-29T01:20:15.922Z,3.30
2018-09-29T01:22:42.839Z,3.27
2018-09-29T01:25:09.738Z,3.00
2018-09-29T01:27:36.590Z,2.57
2018-09-29T01:30:03.503Z,3.10
2018-09-29T01:32:30.446Z,2.97
2018-09-29T01:34:57.387Z,3.40
2018-09-29T01:37:24.346Z,3.57
2018-09-29T01:39:51.350Z,2.60
2018-09-29T01:42:18.354Z,2.57
2018-09-29T01:44:45.318Z,3.50
2018-09-29T01:47:12.665Z,3.17
2018-09-29T01:49:39.558Z,2.67
2018-09-29T01:52:06.494Z,3.80
2018-09-29T01:54:33.347Z,3.40
2018-09-29T01:57:00.362Z,2.70
2018-09-29T01:59:27.270Z,2.60
2018-09-29T02:01:54.226Z,3.30
2018-09-29T02:04:21.182Z,2.53
2018-09-29T02:06:48.159Z,3.00
2018-09-29T02:09:15.086Z,3.62
2018-09-29T02:11:41.990Z,3.27
2018-09-29T02:14:08.893Z,3.00
2018-09-29T02:16:35.744Z,3.03
2018-09-29T02:19:02.604Z,3.40
2018-09-29T02:21:29.578Z,2.80
2018-09-29T02:23:56.558Z,2.50
2018-09-29T02:26:24.517Z,2.77
2018-09-29T02:28:51.515Z,2.40
2018-09-29T02:31:18.420Z,2.87
2018-09-29T02:33:45.374Z,3.50
2018-09-29T02:36:12.373Z,3.10
2018-09-29T02:38:39.294Z,3.07
2018-09-29T02:41:06.258Z,3.50
2018-09-29T02:43:33.224Z,2.30
2018-09-29T02:46:00.162Z,3.17
2018-09-29T02:48:27.017Z,4.87
2018-09-29T02:50:53.978Z,3.20
2018-09-29T02:53:20.946Z,3.00
2018-09-29T02:55:47.900Z,3.10
2018-09-29T02:58:14.858Z,3.70
2018-09-29T03:00:41.824Z,2.53
2018-09-29T03:03:08.763Z,2.80
2018-09-29T03:05:35.730Z,3.30
2018-09-29T03:08:02.680Z,3.27
2018-09-29T03:10:29.542Z,3.50
2018-09-29T03:12:56.502Z,3.20
2018-09-29T03:15:23.459Z,3.30
2018-09-29T03:17:50.710Z,2.50
2018-09-29T03:20:17.674Z,2.63
2018-09-29T03:22:44.643Z,4.43
2018-09-29T03:25:11.597Z,3.30
2018-09-29T03:27:39.467Z,3.13
2018-09-29T03:30:06.379Z,3.30
2018-09-29T03:32:33.290Z,3.73
2018-09-29T03:35:00.258Z,3.80
2018-09-29T03:37:27.190Z,3.10
2018-09-29T03:39:54.068Z,2.80
2018-09-29T03:42:21.003Z,3.63
2018-09-29T03:44:48.004Z,3.80
2018-09-29T03:47:14.920Z,4.27
2018-09-29T03:49:41.901Z,4.93
2018-09-29T03:52:08.853Z,4.43
2018-09-29T03:54:35.797Z,4.50
2018-09-29T03:57:02.746Z,3.57
2018-09-29T03:59:29.721Z,3.83
2018-09-29T04:01:57.055Z,3.43
2018-09-29T04:04:24.055Z,3.43
2018-09-29T04:06:51.026Z,3.40
2018-09-29T04:09:17.962Z,3.30
2018-09-29T04:11:44.830Z,3.20
2018-09-29T04:14:11.779Z,2.67
2018-09-29T04:16:38.727Z,3.00
2018-09-29T04:19:05.766Z,3.10
2018-09-29T04:21:51.026Z,2.70
2018-09-29T04:24:18.430Z,4.37
2018-09-29T04:26:45.335Z,3.22
2018-09-29T04:29:13.578Z,3.00
2018-09-29T04:31:41.130Z,3.23
2018-09-29T04:34:08.135Z,3.00
2018-09-29T04:36:35.066Z,3.10
2018-09-29T04:39:02.014Z,2.53
2018-09-29T04:41:28.861Z,3.55
2018-09-29T04:43:55.830Z,3.40
2018-09-29T04:46:22.771Z,2.77
2018-09-29T04:48:49.621Z,2.90
2018-09-29T04:51:16.522Z,2.70
2018-09-29T04:53:43.639Z,3.83
2018-09-29T04:56:10.504Z,3.07
2018-09-29T04:58:38.375Z,2.93
2018-09-29T05:01:05.689Z,2.80
2018-09-29T05:03:32.602Z,2.57
2018-09-29T05:05:59.519Z,2.40
2018-09-29T05:08:26.398Z,2.67
2018-09-29T05:10:54.287Z,3.33
2018-09-29T05:13:21.145Z,3.17
2018-09-29T05:15:48.103Z,2.70
2018-09-29T05:18:17.002Z,3.00
2018-09-29T05:20:45.908Z,4.07
2018-09-29T05:23:12.916Z,3.50
2018-09-29T05:25:39.752Z,3.10
2018-09-29T05:28:06.620Z,3.00
2018-09-29T05:30:33.546Z,2.40
2018-09-29T05:33:00.510Z,2.70
2018-09-29T05:35:27.449Z,2.50
2018-09-29T05:37:54.298Z,3.10
2018-09-29T05:40:21.158Z,3.50
2018-09-29T05:42:48.018Z,3.20
2018-09-29T05:45:14.862Z,3.00
2018-09-29T05:47:41.794Z,3.30
2018-09-29T05:50:08.698Z,2.98
2018-09-29T05:52:35.539Z,2.92
2018-09-29T05:55:02.386Z,3.27
2018-09-29T05:57:29.243Z,2.80
2018-09-29T05:59:56.118Z,3.50
2018-09-29T06:02:23.050Z,2.73
2018-09-29T06:04:49.911Z,3.13
2018-09-29T06:07:16.933Z,2.40
2018-09-29T06:09:43.723Z,2.50
2018-09-29T06:12:10.566Z,2.90
2018-09-29T06:14:37.435Z,2.53
2018-09-29T06:17:04.398Z,2.50
2018-09-29T06:19:31.378Z,2.53
2018-09-29T06:21:58.323Z,2.37
2018-09-29T06:24:25.261Z,3.03
2018-09-29T06:26:52.134Z,2.67
2018-09-29T06:29:19.090Z,2.70
2018-09-29T06:31:46.026Z,2.83
2018-09-29T06:34:12.983Z,3.03
2018-09-29T06:36:39.839Z,2.37
2018-09-29T06:39:07.829Z,2.60
2018-09-29T06:41:34.806Z,2.67
2018-09-29T06:44:01.734Z,2.40
2018-09-29T06:46:28.606Z,2.60
2018-09-29T06:48:55.542Z,3.17
2018-09-29T06:51:22.419Z,2.50
2018-09-29T06:53:49.366Z,2.37
2018-09-29T06:56:16.342Z,2.60
2018-09-29T06:58:43.426Z,2.73
2018-09-29T07:01:10.378Z,2.10
2018-09-29T07:03:37.290Z,2.40
2018-09-29T07:06:04.230Z,3.60
2018-09-29T07:08:31.125Z,2.80
2018-09-29T07:10:58.106Z,2.60
2018-09-29T07:13:25.317Z,3.27
2018-09-29T07:15:52.204Z,3.00
2018-09-29T07:18:19.151Z,3.47
2018-09-29T07:20:46.210Z,3.10
2018-09-29T07:23:13.096Z,3.00
2018-09-29T07:25:40.014Z,2.77
2018-09-29T07:28:06.855Z,2.53
2018-09-29T07:30:33.714Z,2.70
2018-09-29T07:33:00.631Z,3.20
2018-09-29T07:35:27.546Z,2.80
2018-09-29T07:37:54.371Z,2.20
2018-09-29T07:40:21.446Z,3.23
2018-09-29T07:42:48.310Z,2.80
2018-09-29T07:45:15.254Z,2.77
2018-09-29T07:47:42.146Z,1.93
2018-09-29T07:50:09.107Z,2.23
2018-09-29T07:52:36.090Z,2.70
2018-09-29T07:55:03.137Z,2.47
2018-09-29T07:57:30.058Z,2.20
2018-09-29T07:59:56.898Z,2.43
2018-09-29T08:02:23.750Z,2.67
2018-09-29T08:04:51.042Z,2.30
2018-09-29T08:07:17.938Z,2.27
2018-09-29T08:09:44.770Z,2.03
2018-09-29T08:12:11.682Z,2.70
2018-09-29T08:14:39.574Z,2.00
2018-09-29T08:17:06.458Z,3.00
2018-09-29T08:19:33.371Z,2.47
2018-09-29T08:22:00.199Z,1.83
2018-09-29T08:24:27.141Z,2.37
2018-09-29T08:26:54.046Z,1.80
2018-09-29T08:29:20.891Z,1.50
2018-09-29T08:31:47.747Z,2.00
2018-09-29T08:34:14.582Z,2.03
2018-09-29T08:36:41.506Z,1.97
2018-09-29T08:39:09.959Z,1.50
2018-09-29T08:41:36.787Z,1.70
2018-09-29T08:44:03.617Z,2.73
2018-09-29T08:46:30.442Z,3.58
2018-09-29T08:48:57.406Z,2.13
2018-09-29T08:51:24.350Z,1.57
2018-09-29T08:53:51.300Z,1.50
2018-09-29T08:56:18.527Z,1.70
2018-09-29T08:58:45.416Z,2.27
2018-09-29T09:01:12.769Z,1.80
2018-09-29T09:03:39.637Z,1.20
2018-09-29T09:06:06.674Z,1.50
2018-09-29T09:08:33.506Z,1.37
2018-09-29T09:11:00.414Z,2.50
2018-09-29T09:13:27.367Z,1.67
2018-09-29T09:15:54.194Z,3.60
2018-09-29T09:18:21.092Z,1.20
2018-09-29T09:20:48.035Z,1.60
2018-09-29T09:23:14.953Z,1.73
2018-09-29T09:25:41.740Z,1.13
2018-09-29T09:28:08.663Z,1.43
2018-09-29T09:30:35.571Z,1.07
2018-09-29T09:33:02.618Z,1.50
2018-09-29T09:35:29.482Z,0.97
2018-09-29T09:37:56.323Z,1.60
2018-09-29T09:40:23.182Z,1.43
2018-09-29T09:42:50.035Z,1.00
2018-09-29T09:45:16.890Z,1.45
2018-09-29T09:47:43.730Z,1.33
2018-09-29T09:50:10.599Z,1.57
2018-09-29T09:52:37.470Z,1.77
2018-09-29T09:55:04.470Z,0.90
2018-09-29T09:57:31.415Z,1.10
2018-09-29T09:59:58.256Z,2.33
2018-09-29T10:02:44.825Z,1.10
2018-09-29T10:05:11.702Z,1.07
2018-09-29T10:07:38.566Z,1.40
2018-09-29T10:10:05.399Z,1.30
2018-09-29T10:12:32.282Z,1.33
2018-09-29T10:14:59.245Z,1.07
2018-09-29T10:17:26.203Z,1.10
2018-09-29T10:19:53.009Z,1.00
2018-09-29T10:22:19.900Z,1.20
2018-09-29T10:24:47.782Z,1.10
2018-09-29T10:27:14.746Z,1.00
2018-09-29T10:29:41.683Z,1.50
2018-09-29T10:32:08.558Z,1.83
2018-09-29T10:34:35.496Z,1.17
2018-09-29T10:37:02.366Z,1.40
2018-09-29T10:39:29.302Z,1.20
2018-09-29T10:41:56.179Z,0.97
2018-09-29T10:44:23.114Z,1.33
2018-09-29T10:46:50.005Z,1.33
2018-09-29T10:49:16.932Z,1.50
2018-09-29T10:51:43.773Z,1.00
2018-09-29T10:54:10.647Z,1.10
2018-09-29T10:56:37.539Z,1.00
2018-09-29T10:59:04.503Z,1.30
2018-09-29T11:01:31.302Z,1.40
2018-09-29T11:03:58.154Z,1.70
2018-09-29T11:06:25.038Z,1.03
2018-09-29T11:08:51.974Z,1.13
2018-09-29T11:11:18.830Z,1.13
2018-09-29T11:13:45.702Z,1.10
2018-09-29T11:16:13.004Z,1.20
2018-09-29T11:18:40.055Z,1.20
2018-09-29T11:21:07.086Z,1.30
2018-09-29T11:23:34.179Z,1.30
2018-09-29T11:26:01.137Z,2.43
2018-09-29T11:28:28.162Z,1.17
2018-09-29T11:30:55.226Z,0.97
2018-09-29T11:33:22.768Z,1.30
2018-09-29T11:35:49.808Z,1.47
2018-09-29T11:38:17.743Z,1.40
2018-09-29T11:40:44.678Z,1.50
2018-09-29T11:43:11.837Z,1.50
2018-09-29T11:45:39.020Z,0.97
2018-09-29T11:48:06.020Z,1.60
2018-09-29T11:50:33.028Z,1.13
2018-09-29T11:52:59.970Z,1.40
2018-09-29T11:55:26.862Z,1.57
2018-09-29T11:57:53.902Z,1.93
2018-09-29T12:00:20.901Z,1.33
2018-09-29T12:02:47.955Z,1.40
2018-09-29T12:05:14.903Z,1.20
2018-09-29T12:07:42.372Z,1.60
2018-09-29T12:10:09.205Z,1.10
2018-09-29T12:12:36.288Z,1.27
2018-09-29T12:15:03.310Z,1.60
2018-09-29T12:17:30.210Z,1.40
2018-09-29T12:19:58.279Z,1.13
2018-09-29T12:22:26.261Z,1.40
2018-09-29T12:24:53.342Z,1.30
2018-09-29T12:27:24.917Z,1.20
2018-09-29T12:29:47.228Z,1.47
2018-09-29T12:32:14.118Z,4.70
2018-09-29T12:34:41.025Z,1.23
2018-09-29T12:37:08.995Z,1.70
2018-09-29T12:39:35.854Z,2.10
2018-09-29T12:42:02.708Z,1.27
2018-09-29T12:44:30.307Z,1.60
2018-09-29T12:46:56.630Z,1.73
2018-09-29T12:49:23.577Z,1.37
2018-09-29T12:51:50.501Z,1.10
2018-09-29T12:54:17.304Z,1.47
2018-09-29T12:56:44.196Z,1.80
2018-09-29T12:59:11.230Z,1.67
2018-09-29T13:01:38.193Z,1.27
2018-09-29T13:04:05.221Z,1.63
2018-09-29T13:06:32.086Z,2.50
2018-09-29T13:08:59.111Z,1.60
2018-09-29T13:11:26.147Z,1.90
2018-09-29T13:13:53.233Z,1.70
2018-09-29T13:16:20.283Z,1.90
2018-09-29T13:18:48.353Z,1.00
2018-09-29T13:21:15.285Z,1.43
2018-09-29T13:23:42.289Z,1.20
2018-09-29T13:26:09.241Z,1.40
2018-09-29T13:28:36.175Z,1.40
2018-09-29T13:31:03.372Z,1.50
2018-09-29T13:33:30.305Z,1.60
2018-09-29T13:35:57.249Z,1.57
2018-09-29T13:38:24.187Z,1.35
2018-09-29T13:40:51.250Z,1.57
2018-09-29T13:43:18.338Z,1.63
2018-09-29T13:45:45.299Z,1.33
2018-09-29T13:48:12.210Z,1.50
2018-09-29T13:50:39.184Z,1.17
2018-09-29T13:53:06.406Z,1.13
2018-09-29T13:55:33.282Z,1.40
2018-09-29T13:58:00.247Z,1.20
2018-09-29T14:00:27.194Z,1.40
2018-09-29T14:02:54.134Z,1.30
2018-09-29T14:05:21.002Z,1.40
2018-09-29T14:07:47.991Z,1.60
2018-09-29T14:10:14.832Z,1.00
2018-09-29T14:12:41.675Z,1.53
2018-09-29T14:15:08.606Z,1.20
2018-09-29T14:17:35.475Z,1.10
2018-09-29T14:20:02.524Z,1.23
2018-09-29T14:22:29.346Z,1.20
2018-09-29T14:24:56.275Z,1.30
2018-09-29T14:27:23.210Z,1.47
2018-09-29T14:29:50.058Z,1.33
2018-09-29T14:32:17.946Z,1.27
2018-09-29T14:34:44.761Z,1.27
2018-09-29T14:37:11.684Z,1.40
2018-09-29T14:39:38.617Z,1.20
2018-09-29T14:42:05.754Z,1.17
2018-09-29T14:44:32.597Z,1.13
2018-09-29T14:46:59.510Z,1.10
2018-09-29T14:49:26.466Z,1.07
2018-09-29T14:51:53.390Z,1.47
2018-09-29T14:54:20.234Z,1.00
2018-09-29T14:56:47.115Z,1.03
2018-09-29T14:59:14.068Z,1.20
2018-09-29T15:01:40.910Z,1.23
2018-09-29T15:04:07.821Z,1.40
2018-09-29T15:06:34.605Z,1.67
2018-09-29T15:09:01.476Z,1.30
2018-09-29T15:11:28.330Z,1.20
2018-09-29T15:13:55.285Z,1.33
2018-09-29T15:16:22.118Z,1.17
2018-09-29T15:18:49.022Z,1.00
2018-09-29T15:21:15.946Z,1.35
2018-09-29T15:23:43.838Z,0.90
2018-09-29T15:26:10.940Z,1.30
2018-09-29T15:28:37.663Z,1.20
2018-09-29T15:31:04.514Z,1.43
2018-09-29T15:33:31.394Z,1.27
2018-09-29T15:35:58.722Z,1.00
2018-09-29T15:38:25.723Z,1.30
2018-09-29T15:40:52.586Z,1.30
2018-09-29T15:43:19.525Z,1.30
2018-09-29T15:45:46.447Z,1.40
2018-09-29T15:48:13.506Z,1.10
2018-09-29T15:50:40.366Z,1.60
2018-09-29T15:53:07.238Z,1.60
2018-09-29T15:55:34.146Z,1.00
2018-09-29T15:58:01.081Z,0.90
2018-09-29T16:00:29.013Z,1.10
2018-09-29T16:02:55.890Z,1.37
2018-09-29T16:05:22.850Z,1.10
2018-09-29T16:07:49.821Z,1.20
2018-09-29T16:10:16.686Z,1.43
2018-09-29T16:12:44.667Z,0.80
2018-09-29T16:15:12.630Z,1.20
2018-09-29T16:17:39.587Z,1.90
2018-09-29T16:20:06.526Z,1.20
2018-09-29T16:22:33.353Z,1.20
2018-09-29T16:25:00.218Z,1.10
2018-09-29T16:27:27.106Z,1.30
2018-09-29T16:29:54.036Z,1.10
2018-09-29T16:32:20.910Z,1.40
2018-09-29T16:34:47.734Z,1.30
2018-09-29T16:37:14.613Z,1.10
2018-09-29T16:39:41.478Z,1.20
2018-09-29T16:42:08.430Z,1.00
2018-09-29T16:44:35.295Z,1.00
2018-09-29T16:47:02.238Z,1.17
2018-09-29T16:49:29.095Z,1.13
2018-09-29T16:51:56.002Z,2.73
2018-09-29T16:54:22.934Z,1.47
2018-09-29T16:56:49.750Z,1.40
2018-09-29T16:59:16.641Z,2.20
2018-09-29T17:01:43.659Z,1.47
2018-09-29T17:04:10.604Z,1.33
2018-09-29T17:06:37.580Z,1.63
2018-09-29T17:09:07.936Z,1.30
2018-09-29T17:11:34.944Z,1.33
2018-09-29T17:14:01.834Z,1.10
2018-09-29T17:16:28.738Z,1.10
2018-09-29T17:18:55.738Z,1.70
2018-09-29T17:21:22.711Z,1.63
2018-09-29T17:23:49.677Z,1.67
2018-09-29T17:26:16.698Z,1.90
2018-09-29T17:28:43.646Z,1.50
2018-09-29T17:31:10.686Z,1.40
2018-09-29T17:33:37.754Z,1.20
2018-09-29T17:36:04.869Z,1.60
2018-09-29T17:38:31.804Z,2.00
2018-09-29T17:40:58.690Z,1.47
2018-09-29T17:43:25.930Z,1.50
2018-09-29T17:45:53.038Z,1.77
2018-09-29T17:48:19.891Z,2.30
2018-09-29T17:50:47.406Z,2.00
2018-09-29T17:53:14.399Z,2.07
2018-09-29T17:55:41.493Z,1.90
2018-09-29T17:58:08.417Z,2.27
2018-09-29T18:00:35.640Z,1.43
2018-09-29T18:03:02.675Z,1.37
2018-09-29T18:05:30.659Z,1.50
2018-09-29T18:07:57.701Z,1.47
2018-09-29T18:10:24.777Z,1.17
2018-09-29T18:12:51.834Z,1.20
2018-09-29T18:15:18.713Z,1.60
2018-09-29T18:17:45.804Z,1.17
2018-09-29T18:20:12.650Z,1.90
2018-09-29T18:22:39.539Z,1.60
2018-09-29T18:25:06.618Z,1.77
2018-09-29T18:27:33.722Z,1.80
2018-09-29T18:30:00.559Z,1.90
2018-09-29T18:32:27.459Z,1.63
2018-09-29T18:34:54.414Z,1.67
2018-09-29T18:37:21.363Z,1.17
2018-09-29T18:39:48.314Z,1.50
2018-09-29T18:42:15.215Z,1.70
2018-09-29T18:44:42.236Z,2.53
2018-09-29T18:47:09.291Z,2.03
2018-09-29T18:49:36.294Z,1.73
2018-09-29T18:52:03.206Z,1.37
2018-09-29T18:54:30.099Z,1.60
2018-09-29T18:56:57.014Z,1.00
2018-09-29T18:59:23.883Z,1.80
2018-09-29T19:01:50.748Z,1.53
2018-09-29T19:04:17.706Z,1.70
2018-09-29T19:06:44.650Z,2.47
2018-09-29T19:09:13.166Z,1.77
2018-09-29T19:11:40.650Z,1.80
2018-09-29T19:14:07.479Z,1.67
2018-09-29T19:16:34.414Z,1.77
2018-09-29T19:19:01.289Z,2.03
2018-09-29T19:21:28.234Z,1.83
2018-09-29T19:23:55.101Z,1.90
2018-09-29T19:26:22.042Z,1.80
2018-09-29T19:28:48.924Z,1.63
2018-09-29T19:31:15.851Z,2.17
2018-09-29T19:33:42.724Z,2.67
2018-09-29T19:36:09.637Z,2.10
2018-09-29T19:38:36.542Z,2.23
2018-09-29T19:41:03.518Z,2.03
2018-09-29T19:43:30.444Z,1.90
2018-09-29T19:45:57.313Z,2.00
2018-09-29T19:48:24.251Z,2.10
2018-09-29T19:50:51.098Z,1.90
2018-09-29T19:53:17.946Z,1.87
2018-09-29T19:55:44.794Z,2.63
2018-09-29T19:58:11.686Z,3.47
2018-09-29T20:00:38.646Z,3.90
2018-09-29T20:03:05.619Z,4.17
2018-09-29T20:05:32.566Z,3.77
2018-09-29T20:07:59.530Z,3.23
2018-09-29T20:10:26.466Z,2.70
2018-09-29T20:12:53.315Z,3.53
2018-09-29T20:15:21.438Z,3.03
2018-09-29T20:17:49.282Z,3.10
2018-09-29T20:20:16.150Z,3.10
2018-09-29T20:22:43.093Z,2.83
2018-09-29T20:25:09.943Z,3.07
2018-09-29T20:27:36.790Z,3.20
2018-09-29T20:30:03.667Z,2.50
2018-09-29T20:32:30.807Z,2.93
2018-09-29T20:34:57.678Z,3.23
2018-09-29T20:37:24.607Z,2.70
2018-09-29T20:39:51.376Z,3.37
2018-09-29T20:42:18.246Z,2.87
2018-09-29T20:44:45.211Z,3.47
2018-09-29T20:47:12.223Z,2.73
2018-09-29T20:49:41.167Z,3.47
2018-09-29T20:52:08.390Z,3.60
2018-09-29T20:54:35.279Z,3.07
2018-09-29T20:57:02.138Z,3.17
2018-09-29T20:59:30.053Z,3.27
2018-09-29T21:01:56.962Z,2.97
2018-09-29T21:04:23.874Z,2.93
2018-09-29T21:06:50.858Z,3.43
2018-09-29T21:09:17.736Z,3.40
2018-09-29T21:11:44.630Z,3.40
2018-09-29T21:14:11.552Z,2.73
2018-09-29T21:16:38.398Z,2.80
2018-09-29T21:19:05.370Z,2.90
2018-09-29T21:21:32.306Z,2.83
2018-09-29T21:23:59.160Z,3.37
2018-09-29T21:26:26.042Z,2.40
2018-09-29T21:28:53.014Z,3.73
2018-09-29T21:31:20.978Z,2.90
2018-09-29T21:33:47.929Z,2.70
2018-09-29T21:36:14.798Z,3.10
2018-09-29T21:38:41.743Z,3.00
2018-09-29T21:41:08.692Z,2.93
2018-09-29T21:43:35.645Z,2.90
2018-09-29T21:46:02.475Z,2.57
2018-09-29T21:48:29.350Z,3.20
2018-09-29T21:50:56.206Z,2.60
2018-09-29T21:53:23.085Z,2.40
2018-09-29T21:55:49.925Z,3.47
2018-09-29T21:58:16.898Z,4.00
2018-09-29T22:00:44.569Z,2.93
2018-09-29T22:03:13.050Z,3.70
2018-09-29T22:05:39.999Z,2.93
2018-09-29T22:08:06.978Z,2.70
2018-09-29T22:10:34.006Z,2.83
2018-09-29T22:13:00.970Z,3.10
2018-09-29T22:15:27.836Z,4.00
2018-09-29T22:17:54.691Z,3.30
2018-09-29T22:20:21.550Z,3.03
2018-09-29T22:22:48.530Z,3.23
2018-09-29T22:25:15.461Z,3.00
2018-09-29T22:27:42.300Z,3.40
2018-09-29T22:30:09.174Z,3.40
2018-09-29T22:32:36.167Z,3.40
2018-09-29T22:35:03.222Z,3.83
2018-09-29T22:37:30.821Z,3.23
2018-09-29T22:39:58.730Z,3.30
2018-09-29T22:42:25.594Z,4.28
2018-09-29T22:44:52.586Z,3.13
2018-09-29T22:47:19.515Z,3.20
2018-09-29T22:49:46.346Z,2.80
2018-09-29T22:52:13.218Z,4.03
2018-09-29T22:54:40.163Z,3.30
2018-09-29T22:57:07.229Z,3.33
2018-09-29T22:59:34.151Z,3.53
2018-09-29T23:02:01.138Z,3.30
2018-09-29T23:04:28.019Z,3.03
2018-09-29T23:06:54.958Z,3.30
2018-09-29T23:09:21.848Z,2.90
2018-09-29T23:11:48.694Z,2.90
2018-09-29T23:14:15.542Z,3.50
2018-09-29T23:16:42.494Z,3.03
2018-09-29T23:19:09.504Z,2.60
2018-09-29T23:21:36.418Z,3.67
2018-09-29T23:24:03.394Z,3.20
2018-09-29T23:26:30.297Z,3.37
2018-09-29T23:28:57.175Z,2.97
2018-09-29T23:31:24.110Z,2.53
2018-09-29T23:33:50.998Z,3.10
2018-09-29T23:36:17.933Z,3.47
2018-09-29T23:38:44.795Z,3.17
2018-09-29T23:41:11.762Z,2.63
2018-09-29T23:43:38.605Z,3.43
2018-09-29T23:46:05.457Z,2.53
2018-09-29T23:48:32.610Z,2.60
2018-09-29T23:50:59.462Z,2.77
2018-09-29T23:53:26.347Z,2.60
2018-09-29T23:55:53.301Z,2.50
2018-09-29T23:58:20.162Z,2.50
